Weather at Ward Ranch Airport

Public forecast

Using degrees Fahrenheit for public forecast. Weather courtesy of forecast.io.

Closest aviation weather report (METAR) to Ward Ranch Airport

Closest report is French Valley Airport, 16.8 nm (31.0 km) WNW. Retrieved UTC (0 seconds ago):

Closest aviation forecast (TAF) to Ward Ranch Airport

Closest forecast is Mc Clellan-Palomar Airport, 28.4 nm (52.5 km) SW. Retrieved 2020/10/30 18:22 UTC (50 minutes ago):

TAF KCRQ 301720Z 3018/3118 26007KT P6SM SKC FM310100 VRB04KT P6SM SKC FM310700 VRB03KT 6SM BR FEW002 SCT200 FM311200 VRB04KT P6SM SCT200